Airfield :
LOGIN :

Register | Disclaimer

   EN    FR    IT 

 










Legend :    VFR   Marginal VFR   IFR   Intensive IFR   Very Intensive IFR
Visi :
Ceiling :
>= 8 km
>= 3000ft
5 to 8 km
1000 to 3000 ft
1500m to 5 km
500 to 1000 ft
800 to 1500m
200 to 500 ft
< 800m
< 200 ft
Symbols :   Thunderstorms  Fog  Heavy snow  Heavy precipitations  Wind > 20 kt
SIGMETs :     Misc.  Thunderstorms  Icing  Turbulence  Mountain Waves  Volcanic Ashes






- Airport Elevation : 137 ft


LIPS - Istrana AFB Treviso

CURRENT METAR :
  • 241155Z /////KT CAVOK 08/01 Q1027 RMK SKC VIS MIN 9999 WIND THR26 05003KT WIND THR08 08004KT BLU

EXPIRED METARs :
  • 241055Z /////KT CAVOK 06/01 Q1028 RMK FEW FEW200 VIS MIN 9999 WIND THR26 04005KT WIND THR08 07005KT BLU
  • 240955Z /////KT CAVOK 05/01 Q1028 RMK SKC VIS MIN 9999 WIND THR26 05005KT WIND THR08 08005KT BLU

TAF TAF LIPS
Valid from the 24 at 12:00 until the 24 at 21:00 UTC


241100Z 2412/2421 04005KT CAVOK
TEMPO 2416/2418 5000 BR NSC



MET'MAP, your aeronautical weather chart ! - Copyright ORBIFLY December 2007 - Disclaimer

ORBIFLY MET'MAP TEAM :

Programming & Development : Alexandra Zaïnal
Concept & original design : Baudouin d'Aumeries
Assistance for programming : Marc-Olivier Méhu
Technical & hardware support : Manuel Goepfert

Contact : metmap@orbifly.com




SOURCES & CREDITS :

   NOAA